x

8536110 - Cape May, Nj (cman4) Weather Station

4:18pm - Sun 19th Nov 2017 All times are EST. -5 hours from GMT.

  • Wind
    29mph, 39mph gusts
  • Sea Temp 51°f
  • Air Temp 50°f
  • Sea Pressure 1005.2mb
  • 8536110 - Cape May, Nj
  • 8536110 - Cape May, Nj

More Historic Weather Station data

Upgrade to MSW Pro to gain access to the past 30 days of data for over 8000 Wavebouys and Weather Stations around the globe.

Join

Comparision Forecast

View Surf forecast
   
Sun 11/19 4:18pm 29 39 mph 1005.2mb 51f 50f
4:12pm 21 29 mph 1005.2mb 51f 50f
4:06pm 28 33 mph 1005mb 51f 50f
4:00pm 32 37 mph 1004.8mb 51f 50f
3:54pm 30 41 mph 1004.7mb 51f 50f
3:48pm 28 37 mph 1004.6mb 51f 50f
3:42pm 30 39 mph 1004.4mb 51f 50f
3:36pm 29 37 mph 1004.2mb 51f 51f
3:30pm 29 34 mph 1004mb 51f 51f
3:24pm 30 39 mph 1003.9mb 51f 51f
3:18pm 32 38 mph 1003.7mb 51f 51f
3:12pm 28 34 mph 1003.6mb 51f 51f
3:06pm 30 39 mph 1003.5mb 51f 51f
3:00pm 25 33 mph 1003.5mb 51f 51f
2:54pm 23 32 mph 1003.4mb 51f 51f
2:48pm 29 36 mph 1003.2mb 51f 51f
2:42pm 31 38 mph 1003mb 51f 51f
2:36pm 26 37 mph 1003mb 51f 51f
2:30pm 26 37 mph 1003mb 51f 52f
2:24pm 26 34 mph 1002.8mb 51f 52f
2:18pm 23 32 mph 1002.7mb 51f 52f
2:12pm 25 36 mph 1002.6mb 51f 52f
2:06pm 23 34 mph 1002.5mb 51f 52f
2:00pm 30 39 mph 1002.3mb 51f 52f
1:54pm 23 38 mph 1002.4mb 51f 52f
1:48pm 23 36 mph 1002.3mb 51f 51f
1:42pm 29 36 mph 1002.2mb 51f 52f
1:36pm 30 37 mph 1002.1mb 51f 52f
1:30pm 30 38 mph 1002.2mb 51f 52f
1:24pm 28 36 mph 1002.2mb 51f 52f
1:18pm 33 40 mph 1002.2mb 51f 52f
1:12pm 30 38 mph 1002.2mb 51f 52f
1:06pm 31 39 mph 1002.2mb 51f 52f
1:00pm 29 38 mph 1002.1mb 51f 53f
12:54pm 28 37 mph 1002.1mb 51f 52f
12:48pm 31 40 mph 1002.2mb 51f 52f
12:42pm 31 39 mph 1002.1mb 51f 52f
12:36pm 32 39 mph 1002mb 51f 52f
12:30pm 30 36 mph 1002.1mb 51f 52f
12:24pm 30 36 mph 1002.1mb 51f 52f
12:18pm 31 40 mph 1002mb 51f 52f
12:12pm 29 38 mph 1002mb 51f 52f
12:06pm 30 38 mph 1001.9mb 51f 52f
12:00pm 31 38 mph 1002mb 51f 52f
11:54am 31 39 mph 1001.9mb 51f 52f
11:48am 26 33 mph 1002mb 51f 52f
11:42am 32 40 mph 1002mb 51f 52f
11:36am 32 43 mph 1002mb 51f 52f
11:30am 29 36 mph 1002.1mb 51f 52f
11:24am 29 37 mph 1001.9mb 51f 52f
11:18am 30 36 mph 1001.8mb 51f 52f
11:12am 31 39 mph 1001.8mb 51f 52f
11:06am 33 41 mph 1001.6mb 51f 52f
11:00am 30 36 mph 1001.6mb 51f 52f
10:54am 33 41 mph 1001.5mb 51f 52f
10:48am 33 44 mph 1001.5mb 51f 51f
10:42am 29 40 mph 1001.5mb 51f 52f
10:36am 23 43 mph 1001.2mb 51f 52f
10:30am 29 41 mph 1001.1mb 51f 52f
10:24am 29 43 mph 1001mb 51f 52f
10:18am 31 48 mph 1001mb 51f 52f
10:12am 25 43 mph 1001mb 51f 52f
10:06am 37 45 mph 1000.8mb 51f 51f
10:00am 39 49 mph 1000.7mb 51f 51f
Fri 11/17 1:30pm 18 24 mph 1019.6mb 49f 47f
1:24pm 18 24 mph 1019.7mb 49f 48f
1:18pm 18 28 mph 1019.6mb 49f 48f
1:12pm 21 26 mph 1019.7mb 49f 47f
1:06pm 21 25 mph 1019.8mb 49f 47f
1:00pm 21 28 mph 1019.8mb 49f 47f
12:54pm 18 24 mph 1019.8mb 49f 47f
12:48pm 18 25 mph 1019.7mb 49f 47f
12:42pm 21 28 mph 1019.8mb 49f 47f
12:36pm 21 28 mph 1019.9mb 49f 47f
12:30pm 24 31 mph 1019.8mb 49f 47f
12:24pm 20 26 mph 1019.8mb 49f 47f
12:18pm 22 29 mph 1019.7mb 49f 47f
12:12pm 20 26 mph 1019.9mb 49f 47f
12:06pm 22 26 mph 1019.9mb 49f 47f
12:00pm 21 29 mph 1020mb 49f 47f
11:54am 21 26 mph 1020mb 49f 46f
11:48am 22 28 mph 1020mb 49f 47f
11:42am 22 29 mph 1020mb 49f 46f
11:36am 22 29 mph 1019.9mb 49f 46f
11:30am 18 26 mph 1019.9mb 49f 46f
11:24am 22 30 mph 1019.9mb 49f 46f
11:18am 21 28 mph 1020mb 49f 46f
11:12am 21 30 mph 1020mb 49f 46f
11:06am 22 29 mph 1020mb 49f 46f
11:00am 21 30 mph 1020.2mb 49f 46f
10:54am 22 29 mph 1020.4mb 49f 46f
10:48am 21 28 mph 1020.4mb 49f 46f
10:42am 25 34 mph 1020.4mb 50f 46f
10:36am 23 31 mph 1020.6mb 49f 46f
10:30am 11 21 mph 1020.7mb 49f 47f
10:24am 13 24 mph 1020.5mb 50f 47f
10:18am 11 26 mph 1020.3mb 50f 47f
10:12am 11 21 mph 1020.4mb 50f 47f
10:06am 10 24 mph 1020.6mb 50f 46f
10:00am 23 29 mph 1020.7mb 50f 46f
9:54am 22 31 mph 1020.5mb 50f 45f
9:48am 23 30 mph 1020.6mb 50f 46f
9:42am 22 31 mph 1020.8mb 50f 45f
9:36am 26 32 mph 1020.8mb 50f 45f
9:30am 23 29 mph 1020.9mb 50f 46f
9:24am 21 30 mph 1020.8mb 50f 46f
9:18am 24 31 mph 1020.8mb 50f 45f
9:12am 23 30 mph 1020.9mb 50f 46f
9:06am 22 30 mph 1020.8mb 50f 46f
9:00am 23 30 mph 1020.7mb 50f 45f
8:54am 21 29 mph 1020.7mb 50f 45f
8:48am 23 31 mph 1020.5mb 50f 45f
8:42am 24 32 mph 1020.5mb 50f 45f
8:36am 20 26 mph 1020.7mb 51f 45f
8:30am 23 29 mph 1020.7mb 51f 45f
8:24am 23 28 mph 1020.8mb 50f 45f
8:18am 23 32 mph 1020.8mb 50f 45f
8:12am 24 29 mph 1020.8mb 50f 45f
8:06am 26 31 mph 1020.7mb 50f 45f
8:00am 26 34 mph 1020.5mb 50f 45f
7:54am 24 33 mph 1020.5mb 50f 44f
7:48am 24 31 mph 1020.5mb 50f 45f
7:42am 24 31 mph 1020.5mb 51f 45f
7:36am 23 29 mph 1020.4mb 51f 45f
7:30am 23 30 mph 1020.3mb 51f 45f
7:24am 24 31 mph 1020.2mb 51f 45f
7:18am 29 34 mph 1020.1mb 50f 45f
7:12am 25 33 mph 1020mb 50f 45f
7:06am 29 36 mph 1019.9mb 51f 45f
7:00am 16 26 mph 1019.8mb 51f 45f
6:54am 15 28 mph 1019.6mb 51f 45f
6:48am 9 23 mph 1019.6mb 51f 45f
6:42am 15 24 mph 1019.5mb 51f 45f
6:36am 13 25 mph 1019.4mb 51f 45f
6:30am 18 29 mph 1019.3mb 51f 45f
6:24am 18 33 mph 1019.2mb 51f 45f
6:18am 15 28 mph 1019.2mb 51f 45f
6:12am 15 26 mph 1019.1mb 51f 45f
6:06am 16 30 mph 1018.9mb 51f 45f
6:00am 13 23 mph 1018.9mb 51f 45f
5:54am 16 28 mph 1018.7mb 51f 46f
5:48am 15 24 mph 1018.7mb 51f 46f
5:42am 17 32 mph 1018.6mb 51f 46f
5:36am 16 25 mph 1018.5mb 51f 46f
5:30am 16 29 mph 1018.4mb 51f 46f
5:24am 11 26 mph 1018.3mb 51f 46f
5:18am 21 32 mph 1018.2mb 51f 46f
5:12am 10 20 mph 1018.1mb 51f 46f
5:06am 20 31 mph 1018mb 51f 46f
5:00am 20 30 mph 1018mb 51f 46f
4:54am 20 30 mph 1017.9mb 51f 46f
4:48am 18 29 mph 1017.9mb 51f 46f
4:42am 20 29 mph 1017.8mb 51f 46f
4:36am 20 30 mph 1017.8mb 51f 46f
4:30am 22 34 mph 1017.7mb 51f 46f
4:24am 17 29 mph 1017.7mb 51f 46f
4:18am 20 29 mph 1017.7mb 51f 46f
4:12am 21 31 mph 1017.7mb 51f 46f
4:06am 17 24 mph 1017.7mb 51f 46f
4:00am 20 28 mph 1017.7mb 51f 46f
3:54am 18 28 mph 1017.6mb 51f 46f
3:48am 18 28 mph 1017.5mb 50f 46f
3:42am 18 29 mph 1017.4mb 50f 46f
3:36am 21 31 mph 1017.3mb 51f 46f
3:30am 20 29 mph 1017.3mb 50f 46f
3:24am 24 32 mph 1017.2mb 50f 46f
3:18am 23 31 mph 1017.2mb 50f 46f
3:12am 20 29 mph 1017.2mb 50f 46f
3:06am 24 33 mph 1017.1mb 50f 46f
3:00am 21 29 mph 1017.1mb 50f 47f
2:54am 23 32 mph 1017.1mb 50f 47f
2:48am 23 32 mph 1017.1mb 50f 47f
2:42am 22 28 mph 1017.2mb 50f 46f
2:36am 21 29 mph 1017.1mb 50f 46f
2:30am 22 32 mph 1017mb 50f 46f
2:24am 21 29 mph 1017mb 50f 46f
2:18am 23 31 mph 1017mb 50f 47f
2:12am 22 32 mph 1017mb 50f 47f
2:06am 21 30 mph 1017mb 51f 47f
2:00am 23 34 mph 1016.9mb 51f 47f
1:54am 23 34 mph 1016.9mb 51f 47f
1:48am 23 34 mph 1016.7mb 51f 47f
1:42am 23 31 mph 1016.6mb 51f 47f
1:36am 21 34 mph 1016.5mb 51f 47f
1:30am 24 33 mph 1016.3mb 51f 47f
1:24am 25 33 mph 1016.4mb 51f 47f
1:18am 23 32 mph 1016.3mb 51f 47f
1:12am 26 37 mph 1016.2mb 51f 47f
1:06am 23 34 mph 1016.3mb 51f 47f
1:00am 23 37 mph 1016.2mb 51f 47f
12:54am 26 38 mph 1016.1mb 51f 47f
12:48am 23 33 mph 1016.1mb 51f 47f
12:42am 28 39 mph 1016mb 51f 47f
12:36am 23 34 mph 1016.1mb 51f 47f
12:30am 28 38 mph 1016.1mb 51f 47f
12:24am 26 36 mph 1016.2mb 51f 47f
12:18am 22 34 mph 1016.1mb 51f 47f
12:12am 24 36 mph 1016.1mb 51f 47f
12:06am 20 32 mph 1016.1mb 51f 47f
12:00am 25 37 mph 1016mb 51f 47f
Thu 11/16 11:54pm 22 36 mph 1016mb 52f 47f
11:48pm 20 30 mph 1016mb 52f 47f
11:42pm 22 33 mph 1016mb 52f 47f
11:36pm 23 34 mph 1016mb 52f 47f
11:30pm 22 30 mph 1016mb 52f 47f
11:24pm 22 34 mph 1015.8mb 52f 47f
11:18pm 21 31 mph 1015.7mb 52f 47f
11:12pm 22 31 mph 1015.7mb 52f 47f
11:06pm 23 31 mph 1015.7mb 52f 47f
11:00pm 21 31 mph 1015.8mb 52f 47f
10:54pm 25 36 mph 1015.7mb 52f 47f
10:48pm 20 31 mph 1015.7mb 52f 47f
10:42pm 23 36 mph 1015.7mb 52f 47f
10:36pm 20 33 mph 1015.7mb 52f 47f
10:30pm 17 29 mph 1015.6mb 52f 48f
10:24pm 20 36 mph 1015.5mb 52f 48f
10:18pm 22 34 mph 1015.4mb 53f 48f
10:12pm 22 33 mph 1015.3mb 53f 48f
10:06pm 17 31 mph 1015.4mb 53f 48f
10:00pm 20 31 mph 1015.3mb 53f 48f
9:54pm 22 36 mph 1015.4mb 53f 48f
9:48pm 18 34 mph 1015.4mb 53f 48f
9:42pm 16 29 mph 1015.4mb 53f 48f
9:36pm 14 29 mph 1015.4mb 53f 49f
9:30pm 17 30 mph 1015.3mb 53f 49f
9:24pm 16 33 mph 1015.2mb 53f 49f
9:18pm 14 31 mph 1015.3mb 53f 49f
9:12pm 13 28 mph 1015.1mb 53f 49f
9:06pm 13 23 mph 1015.1mb 53f 49f
9:00pm 23 36 mph 1015mb 53f 49f
8:54pm 25 36 mph 1015mb 53f 49f
8:48pm 26 31 mph 1014.9mb 53f 50f
8:42pm 23 30 mph 1014.8mb 53f 50f
8:36pm 25 33 mph 1014.7mb 53f 50f
8:30pm 26 37 mph 1014.6mb 53f 50f
8:24pm 28 38 mph 1014.4mb 53f 50f
8:18pm 29 39 mph 1014.4mb 53f 50f
8:12pm 26 37 mph 1014.4mb 53f 50f
8:06pm 25 37 mph 1014.4mb 53f 50f
8:00pm 25 32 mph 1014.3mb 53f 51f
7:54pm 22 34 mph 1014.2mb 53f 51f
7:48pm 22 37 mph 1014.1mb 53f 51f
7:42pm 22 32 mph 1014mb 53f 51f
7:36pm 22 32 mph 1014mb 53f 51f
7:30pm 22 31 mph 1013.9mb 53f 52f
7:24pm 20 30 mph 1013.9mb 53f 52f
7:18pm 21 29 mph 1013.8mb 53f 52f
7:12pm 22 30 mph 1013.7mb 53f 52f
7:06pm 23 31 mph 1013.6mb 53f 52f
7:00pm 20 26 mph 1013.5mb 53f 52f
6:54pm 22 29 mph 1013.4mb 53f 52f
6:48pm 18 24 mph 1013.4mb 53f 52f
6:42pm 17 23 mph 1013.4mb 53f 53f
6:36pm 20 25 mph 1013.3mb 53f 53f
6:30pm 18 25 mph 1013.2mb 53f 53f
6:24pm 22 29 mph 1013mb 53f 54f
6:18pm 20 25 mph 1012.9mb 53f 54f
6:12pm 20 24 mph 1012.8mb 53f 54f
6:06pm 24 28 mph 1012.6mb 53f 54f
6:00pm 15 23 mph 1012.5mb 53f 55f
5:54pm 15 23 mph 1012.5mb 53f 55f
5:48pm 13 24 mph 1012.4mb 53f 55f
5:42pm 11 21 mph 1012.3mb 53f 55f
5:36pm 11 22 mph 1012.2mb 53f 55f
5:30pm 6 15 mph 1012.1mb 53f 55f
5:24pm 20 26 mph 1012mb 53f 55f
5:18pm 18 22 mph 1011.9mb 53f 54f
5:12pm 18 24 mph 1011.7mb 53f 55f
5:06pm 20 24 mph 1011.6mb 53f 55f
5:00pm 21 29 mph 1011.5mb 53f 55f
4:54pm 18 22 mph 1011.3mb 53f 56f
4:48pm 17 21 mph 1011.1mb 53f 56f
4:42pm 17 22 mph 1011mb 53f 56f
4:36pm 14 17 mph 1011mb 53f 56f
4:30pm 16 18 mph 1011mb 54f 56f
4:24pm 15 18 mph 1010.9mb 54f 55f
4:18pm 10 13 mph 1010.9mb 54f 55f
4:12pm 11 15 mph 1010.9mb 54f 55f
4:06pm 13 16 mph 1010.8mb 53f 56f
4:00pm 13 16 mph 1010.8mb 53f 56f
3:54pm 13 15 mph 1010.8mb 54f 56f
3:48pm 11 15 mph 1010.7mb 54f 56f
3:42pm 13 14 mph 1010.7mb 54f 56f
3:36pm 13 16 mph 1010.7mb 54f 56f
3:30pm 15 17 mph 1010.6mb 53f 56f
3:24pm 15 20 mph 1010.5mb 53f 57f
3:18pm 13 17 mph 1010.5mb 53f 56f
3:12pm 14 16 mph 1010.3mb 53f 57f
3:06pm 17 21 mph 1010.3mb 53f 57f
3:00pm 15 18 mph 1010.2mb 53f 57f
2:54pm 15 17 mph 1010.1mb 53f 57f
2:48pm 14 17 mph 1010.1mb 53f 57f
2:42pm 14 17 mph 1010.1mb 53f 57f
2:36pm 15 21 mph 1010.1mb 53f 58f
2:30pm 14 18 mph 1010.1mb 53f 58f
2:24pm 9 14 mph 1010.2mb 53f 57f
2:18pm 10 13 mph 1010.2mb 53f 57f
2:12pm 13 17 mph 1010.2mb 53f 57f
2:06pm 13 20 mph 1010.2mb 53f 58f
2:00pm 14 18 mph 1010.2mb 53f 58f
1:54pm 14 20 mph 1010.2mb 53f 58f
1:48pm 15 20 mph 1010.3mb 53f 58f
1:42pm 16 21 mph 1010.3mb 53f 58f
1:36pm 18 23 mph 1010.3mb 53f 57f
1:30pm 18 23 mph 1010.2mb 53f 57f
1:24pm 18 24 mph 1010.2mb 53f 57f
1:18pm 13 16 mph 1010.2mb 53f 57f
1:12pm 16 20 mph 1010.3mb 53f 57f
1:06pm 11 15 mph 1010.3mb 53f 56f
1:00pm 10 13 mph 1010.3mb 53f 56f
12:54pm 9 11 mph 1010.4mb 53f 55f
12:48pm 10 13 mph 1010.3mb 53f 55f
12:42pm 10 13 mph 1010.4mb 53f 55f
12:36pm 10 11 mph 1010.4mb 53f 55f
12:30pm 11 14 mph 1010.5mb 53f 54f
12:24pm 10 11 mph 1010.6mb 53f 54f
12:18pm 9 11 mph 1010.7mb 53f 54f
12:12pm 10 11 mph 1010.6mb 53f 53f
12:06pm 10 11 mph 1010.7mb 53f 53f
12:00pm 13 14 mph 1010.8mb 53f 53f
11:54am 13 15 mph 1010.9mb 53f 53f
11:48am 13 15 mph 1011.1mb 53f 53f
11:42am 13 15 mph 1011.2mb 53f 53f
11:36am 13 15 mph 1011.3mb 53f 53f
11:30am 13 14 mph 1011.5mb 53f 53f
11:24am 14 16 mph 1011.5mb 53f 53f
11:18am 11 14 mph 1011.6mb 53f 53f
11:12am 9 11 mph 1011.7mb 53f 53f
11:06am 10 13 mph 1011.7mb 53f 52f
11:00am 11 14 mph 1011.8mb 53f 52f
10:54am 11 14 mph 1011.9mb 53f 53f
10:48am 11 14 mph 1011.9mb 53f 52f
10:42am 13 15 mph 1012mb 53f 52f
10:36am 11 14 mph 1012.1mb 53f 53f
10:30am 10 13 mph 1012.1mb 53f 52f
10:24am 11 14 mph 1012.2mb 53f 53f
10:18am 11 13 mph 1012.3mb 53f 52f
10:12am 10 16 mph 1012.3mb 53f 52f
10:06am 13 16 mph 1012.4mb 53f 52f
10:00am 11 17 mph 1012.5mb 53f 51f
9:54am 14 18 mph 1012.7mb 53f 51f
9:48am 10 14 mph 1012.6mb 53f 51f
9:42am 13 16 mph 1012.6mb 53f 51f
9:36am 14 16 mph 1012.7mb 53f 51f
9:30am 11 15 mph 1012.6mb 53f 51f
9:24am 13 16 mph 1012.5mb 53f 51f
9:18am 14 17 mph 1012.6mb 53f 51f
9:12am 13 15 mph 1012.5mb 53f 51f
9:06am 13 14 mph 1012.4mb 53f 51f
9:00am 14 15 mph 1012.5mb 53f 51f
8:54am 13 15 mph 1012.5mb 53f 51f
8:48am 13 15 mph 1012.6mb 53f 51f
8:42am 11 15 mph 1012.7mb 53f 51f
8:36am 14 15 mph 1012.7mb 53f 51f
8:30am 14 16 mph 1012.8mb 53f 51f
8:24am 13 15 mph 1012.8mb 53f 51f
8:18am 13 16 mph 1012.8mb 52f 51f
8:12am 14 17 mph 1012.8mb 52f 51f
8:06am 13 17 mph 1012.8mb 52f 51f
8:00am 15 17 mph 1012.9mb 52f 51f
7:54am 14 18 mph 1012.8mb 52f 51f
7:48am 15 17 mph 1012.8mb 52f 51f
7:42am 14 16 mph 1012.6mb 52f 51f
7:36am 13 17 mph 1012.6mb 52f 52f
7:30am 14 18 mph 1012.5mb 52f 52f
7:24am 10 14 mph 1012.5mb 52f 52f
7:18am 10 13 mph 1012.5mb 52f 52f
7:12am 8 11 mph 1012.5mb 52f 52f
7:06am 10 13 mph 1012.6mb 52f 52f
7:00am 9 13 mph 1012.6mb 52f 52f
6:54am 8 10 mph 1012.6mb 52f 51f
6:48am 7 10 mph 1012.7mb 52f 51f
6:42am 8 10 mph 1012.6mb 52f 51f
6:36am 7 10 mph 1012.6mb 52f 51f
6:30am 6 9 mph 1012.6mb 52f 51f
6:24am 8 11 mph 1012.6mb 52f 51f
6:18am 7 11 mph 1012.5mb 52f 52f
6:12am 8 10 mph 1012.4mb 52f 52f
6:06am 6 9 mph 1012.5mb 52f 52f
6:00am 8 11 mph 1012.7mb 52f 52f
5:54am 7 9 mph 1012.8mb 52f 52f
5:48am 6 7 mph 1012.8mb 52f 52f
5:42am 5 5 mph 1012.8mb 52f 52f
5:36am 3 5 mph 1012.7mb 52f 51f
5:30am 3 6 mph 1012.6mb 52f 51f
5:24am 5 7 mph 1012.7mb 52f 52f
5:18am  -  1 mph 1012.7mb 52f 52f
5:12am 3 6 mph 1013.1mb 52f 52f
5:06am 3 5 mph 1013.2mb 52f 52f
5:00am 3 6 mph 1013.3mb 52f 52f
4:54am 3 6 mph 1013.1mb 52f 52f
4:48am 6 8 mph 1013.2mb 52f 52f
4:42am 3 6 mph 1013mb 52f 52f
4:36am 5 6 mph 1013.2mb 52f 53f
4:30am 8 10 mph 1013.4mb 52f 53f
4:24am 8 10 mph 1013.5mb 52f 53f
4:18am 7 8 mph 1013.4mb 52f 53f
4:12am 5 5 mph 1013.5mb 52f 53f
4:06am 5 6 mph 1013.6mb 53f 53f
4:00am 2 3 mph 1013.2mb 53f 54f
3:54am 6 7 mph 1013.8mb 53f 53f
3:48am 5 6 mph 1013.8mb 53f 54f
3:42am 1 3 mph 1013.6mb 53f 54f
3:36am 2 3 mph 1013.8mb 53f 54f
3:30am 3 5 mph 1013.9mb 53f 54f
3:24am 1 3 mph 1013.8mb 53f 54f
3:18am 3 3 mph 1013.7mb 53f 54f
3:12am 3 5 mph 1013.6mb 53f 54f
3:06am 2 5 mph 1014.1mb 53f 54f
3:00am 3 5 mph 1014.1mb 53f 54f
2:54am 2 3 mph 1014.4mb 53f 54f
2:48am 2 3 mph 1014.4mb 53f 54f
2:42am 2 3 mph 1014.6mb 53f 54f
2:36am 1 3 mph 1014.6mb 53f 54f
2:30am 3 5 mph 1014.6mb 53f 54f
2:24am 6 8 mph 1014.5mb 53f 54f
2:18am 5 6 mph 1014.8mb 53f 54f
2:12am 6 7 mph 1015mb 53f 54f
2:06am 6 8 mph 1015.1mb 53f 54f
2:00am 7 10 mph 1015.2mb 53f 55f
1:54am 6 8 mph 1015.2mb 53f 55f
1:48am 6 8 mph 1015.2mb 53f 55f
1:42am 7 14 mph 1015.1mb 53f 55f
1:36am 6 9 mph 1015.2mb 53f 55f
1:30am 6 11 mph 1015.2mb 53f 55f
1:24am 5 6 mph 1015.2mb 53f 55f
1:18am 6 7 mph 1015.1mb 53f 56f
1:12am 6 8 mph 1015.1mb 53f 56f
1:06am 6 7 mph 1015.1mb 53f 56f
1:00am 5 7 mph 1015.2mb 53f 56f
12:54am 5 6 mph 1015.3mb 53f 56f
12:48am 5 8 mph 1015.4mb 53f 56f
12:42am 6 8 mph 1015.4mb 53f 56f
12:36am 6 9 mph 1015.5mb 53f 56f
12:30am 6 8 mph 1015.6mb 53f 56f
12:24am 6 7 mph 1015.8mb 53f 56f
12:18am 5 7 mph 1015.8mb 53f 56f
12:12am 6 7 mph 1015.9mb 53f 56f
12:06am 7 10 mph 1015.9mb 53f 56f
12:00am 6 8 mph 1015.9mb 53f 56f
Wed 11/15 11:54pm 7 10 mph 1015.8mb 53f 56f
11:48pm 6 8 mph 1016mb 53f 56f
11:42pm 7 9 mph 1016mb 53f 56f
11:36pm 7 9 mph 1016.1mb 53f 56f
11:30pm 7 11 mph 1016mb 53f 56f
11:24pm 7 8 mph 1016.2mb 53f 56f
11:18pm 7 10 mph 1016.1mb 53f 56f
11:12pm 7 8 mph 1016.1mb 53f 55f
11:06pm 6 8 mph 1016.2mb 53f 55f
11:00pm 7 9 mph 1016.3mb 53f 55f
10:54pm 6 7 mph 1016.5mb 53f 55f
10:48pm 7 9 mph 1016.5mb - -
10:42pm 8 9 mph 1016.6mb 53f 55f
10:36pm 7 9 mph 1016.5mb 53f 55f
10:30pm 7 9 mph 1016.6mb 53f 55f
10:24pm 6 9 mph 1016.7mb 53f 55f
10:18pm 6 8 mph 1016.8mb - -
10:12pm 6 7 mph 1017mb 53f 55f